createdAt,value
2018-12-26T00:00:21.259Z,65.34
2018-12-26T00:03:51.400Z,65.38
2018-12-26T00:07:21.693Z,65.41
2018-12-26T00:10:51.875Z,65.46
2018-12-26T00:14:22.032Z,65.5
2018-12-26T00:17:52.135Z,65.56
2018-12-26T00:21:22.215Z,65.62
2018-12-26T00:24:52.286Z,65.66
2018-12-26T00:28:22.230Z,65.7
2018-12-26T00:31:52.260Z,65.75
2018-12-26T00:35:22.309Z,65.78
2018-12-26T00:38:52.350Z,65.85
2018-12-26T00:42:22.353Z,65.88
2018-12-26T00:45:52.423Z,65.93
2018-12-26T00:49:22.435Z,65.98
2018-12-26T00:52:52.456Z,66.02
2018-12-26T00:56:22.535Z,66.07
2018-12-26T00:59:52.706Z,66.13
2018-12-26T01:03:22.718Z,66.18
2018-12-26T01:06:52.849Z,66.26
2018-12-26T01:10:23.038Z,66.29
2018-12-26T01:13:53.255Z,66.32
2018-12-26T01:17:23.238Z,66.39
2018-12-26T01:20:53.309Z,66.43
2018-12-26T01:24:23.500Z,66.45
2018-12-26T01:27:53.530Z,66.49
2018-12-26T01:31:23.652Z,66.56
2018-12-26T01:34:53.668Z,66.58
2018-12-26T01:38:23.684Z,66.62
2018-12-26T01:41:53.852Z,66.65
2018-12-26T01:45:23.926Z,66.65
2018-12-26T01:48:54.116Z,66.67
2018-12-26T01:52:24.158Z,66.7
2018-12-26T01:55:54.358Z,66.72
2018-12-26T01:59:24.480Z,66.72
2018-12-26T02:00:18.420Z,66.72
2018-12-26T02:03:48.502Z,66.74
2018-12-26T02:07:18.682Z,66.74
2018-12-26T02:10:49.074Z,66.77
2018-12-26T02:14:19.145Z,66.75
2018-12-26T02:17:49.275Z,66.77
2018-12-26T02:21:19.419Z,66.78
2018-12-26T02:24:49.617Z,66.75
2018-12-26T02:28:19.619Z,66.78
2018-12-26T02:31:49.799Z,66.79
2018-12-26T02:35:19.951Z,66.81
2018-12-26T02:38:50.118Z,66.82
2018-12-26T02:42:20.122Z,66.82
2018-12-26T02:45:50.294Z,66.83
2018-12-26T02:49:20.265Z,66.82
2018-12-26T02:52:50.356Z,66.84
2018-12-26T02:56:20.397Z,66.84
2018-12-26T02:59:50.468Z,66.87
2018-12-26T03:03:20.529Z,66.85
2018-12-26T03:06:50.580Z,66.85
2018-12-26T03:10:20.561Z,66.86
2018-12-26T03:13:51.051Z,66.88
2018-12-26T03:17:21.197Z,66.86
2018-12-26T03:20:51.237Z,66.85
2018-12-26T03:24:21.277Z,66.83
2018-12-26T03:27:51.436Z,66.8
2018-12-26T03:31:21.438Z,66.77
2018-12-26T03:34:51.708Z,66.75
2018-12-26T03:38:21.849Z,66.7
2018-12-26T03:41:52.198Z,66.69
2018-12-26T03:45:22.712Z,66.67
2018-12-26T03:48:52.857Z,66.66
2018-12-26T03:52:23.045Z,66.66
2018-12-26T03:55:53.115Z,66.66
2018-12-26T03:59:23.195Z,66.65
2018-12-26T04:00:18.540Z,66.64
2018-12-26T04:03:48.708Z,66.63
2018-12-26T04:07:18.767Z,66.62
2018-12-26T04:10:49.000Z,66.62
2018-12-26T04:14:19.220Z,66.62
2018-12-26T04:17:49.401Z,66.61
2018-12-26T04:21:19.552Z,66.61
2018-12-26T04:24:49.753Z,66.61
2018-12-26T04:28:19.738Z,66.61
2018-12-26T04:31:49.776Z,66.59
2018-12-26T04:35:19.897Z,66.59
2018-12-26T04:38:49.986Z,66.54
2018-12-26T04:42:20.108Z,66.55
2018-12-26T04:45:50.121Z,66.55
2018-12-26T04:49:20.311Z,66.57
2018-12-26T04:52:50.382Z,66.59
2018-12-26T04:56:20.342Z,66.58
2018-12-26T04:59:50.404Z,66.58
2018-12-26T05:03:20.378Z,66.6
2018-12-26T05:06:50.445Z,66.61
2018-12-26T05:10:20.527Z,66.63
2018-12-26T05:13:50.567Z,66.62
2018-12-26T05:17:20.653Z,66.63
2018-12-26T05:20:50.779Z,66.63
2018-12-26T05:24:20.810Z,66.6
2018-12-26T05:27:50.871Z,66.61
2018-12-26T05:31:21.002Z,66.61
2018-12-26T05:34:50.924Z,66.63
2018-12-26T05:38:22.021Z,66.64
2018-12-26T05:41:52.155Z,66.65
2018-12-26T05:45:22.168Z,66.65
2018-12-26T05:48:52.177Z,66.67
2018-12-26T05:52:22.210Z,66.69
2018-12-26T05:55:52.259Z,66.7
2018-12-26T05:59:22.250Z,66.72
2018-12-26T06:00:18.831Z,66.75
2018-12-26T06:03:48.822Z,66.74
2018-12-26T06:07:18.803Z,66.75
2018-12-26T06:10:48.884Z,66.76
2018-12-26T06:14:18.875Z,66.78
2018-12-26T06:17:49.255Z,66.78
2018-12-26T06:21:19.197Z,66.8
2018-12-26T06:24:49.238Z,66.82
2018-12-26T06:28:19.319Z,66.86
2018-12-26T06:31:49.331Z,66.87
2018-12-26T06:35:19.370Z,66.86
2018-12-26T06:38:49.461Z,66.86
2018-12-26T06:42:19.560Z,66.85
2018-12-26T06:45:49.643Z,66.87
2018-12-26T06:49:19.715Z,66.87
2018-12-26T06:52:49.766Z,66.89
2018-12-26T06:56:19.731Z,66.94
2018-12-26T06:59:49.778Z,66.92
2018-12-26T07:03:19.778Z,66.98
2018-12-26T07:06:49.860Z,67
2018-12-26T07:10:19.901Z,67.02
2018-12-26T07:13:49.943Z,67.05
2018-12-26T07:17:20.047Z,67.07
2018-12-26T07:20:50.214Z,67.08
2018-12-26T07:24:20.225Z,67.09
2018-12-26T07:27:50.276Z,67.09
2018-12-26T07:31:20.207Z,67.1
2018-12-26T07:34:50.281Z,67.09
2018-12-26T07:38:20.140Z,67.11
2018-12-26T07:41:50.251Z,67.1
2018-12-26T07:45:21.272Z,67.11
2018-12-26T07:48:51.390Z,67.12
2018-12-26T07:52:21.496Z,67.12
2018-12-26T07:55:51.515Z,67.12
2018-12-26T07:59:21.476Z,67.11
2018-12-26T08:00:18.846Z,67.13
2018-12-26T08:03:49.091Z,67.13
2018-12-26T08:07:19.168Z,67.12
2018-12-26T08:10:49.237Z,67.11
2018-12-26T08:14:19.191Z,67.11
2018-12-26T08:17:49.223Z,67.13
2018-12-26T08:21:19.433Z,67.1
2018-12-26T08:24:49.534Z,67.1
2018-12-26T08:28:26.487Z,67.11
2018-12-26T08:31:57.016Z,67.1
2018-12-26T08:35:27.087Z,67.1
2018-12-26T08:38:57.140Z,67.09
2018-12-26T08:42:27.170Z,67.09
2018-12-26T08:45:57.221Z,67.08
2018-12-26T08:49:27.272Z,67.07
2018-12-26T08:52:57.466Z,67.06
2018-12-26T08:56:27.544Z,67.05
2018-12-26T08:59:57.625Z,67.03
2018-12-26T09:03:27.576Z,67.01
2018-12-26T09:06:57.908Z,66.98
2018-12-26T09:10:28.138Z,66.95
2018-12-26T09:13:58.259Z,66.94
2018-12-26T09:17:28.221Z,66.92
2018-12-26T09:20:58.282Z,66.89
2018-12-26T09:24:28.363Z,66.86
2018-12-26T09:27:58.403Z,66.82
2018-12-26T09:31:28.464Z,66.8
2018-12-26T09:34:58.738Z,66.76
2018-12-26T09:38:28.757Z,66.71
2018-12-26T09:41:58.878Z,66.65
2018-12-26T09:45:28.920Z,66.62
2018-12-26T09:48:59.077Z,66.57
2018-12-26T09:52:29.082Z,66.52
2018-12-26T09:55:59.233Z,66.48
2018-12-26T09:59:29.244Z,66.41
2018-12-26T10:00:19.114Z,66.42
2018-12-26T10:03:49.185Z,66.34
2018-12-26T10:07:19.257Z,66.31
2018-12-26T10:10:49.318Z,66.23
2018-12-26T10:14:19.299Z,66.2
2018-12-26T10:17:49.499Z,66.12
2018-12-26T10:21:19.521Z,66.04
2018-12-26T10:24:49.996Z,65.98
2018-12-26T10:28:20.064Z,65.9
2018-12-26T10:31:50.195Z,65.79
2018-12-26T10:35:20.306Z,65.7
2018-12-26T10:38:50.387Z,65.61
2018-12-26T10:42:20.459Z,65.53
2018-12-26T10:45:50.540Z,65.4
2018-12-26T10:49:20.501Z,65.29
2018-12-26T10:52:50.683Z,65.16
2018-12-26T10:56:20.674Z,65
2018-12-26T10:59:51.035Z,64.89
2018-12-26T11:03:21.156Z,64.67
2018-12-26T11:06:51.188Z,64.56
2018-12-26T11:10:21.332Z,64.38
2018-12-26T11:13:51.450Z,64.26
2018-12-26T11:17:21.802Z,64.1
2018-12-26T11:20:52.238Z,63.92
2018-12-26T11:24:22.265Z,63.74
2018-12-26T11:27:52.986Z,63.56
2018-12-26T11:31:23.087Z,63.37
2018-12-26T11:34:53.149Z,63.2
2018-12-26T11:38:23.214Z,63.02
2018-12-26T11:41:53.282Z,62.82
2018-12-26T11:45:23.352Z,62.63
2018-12-26T11:48:53.524Z,62.46
2018-12-26T11:52:23.538Z,62.23
2018-12-26T11:55:53.595Z,62.04
2018-12-26T11:59:27.260Z,61.84
2018-12-26T12:00:19.229Z,61.78
2018-12-26T12:03:49.470Z,61.59
2018-12-26T12:07:19.601Z,61.38
2018-12-26T12:10:50.222Z,61.17
2018-12-26T12:14:20.424Z,60.99
2018-12-26T12:17:50.467Z,60.76
2018-12-26T12:21:20.508Z,60.55
2018-12-26T12:24:50.554Z,60.33
2018-12-26T12:28:20.729Z,60.16
2018-12-26T12:31:50.902Z,59.98
2018-12-26T12:35:20.952Z,59.79
2018-12-26T12:38:50.994Z,59.63
2018-12-26T12:42:21.765Z,59.45
2018-12-26T12:45:51.974Z,59.28
2018-12-26T12:49:22.167Z,59.1
2018-12-26T12:52:52.193Z,58.94
2018-12-26T12:56:22.300Z,58.76
2018-12-26T12:59:52.381Z,58.61
2018-12-26T13:03:22.527Z,58.47
2018-12-26T13:06:52.693Z,58.31
2018-12-26T13:10:22.794Z,58.17
2018-12-26T13:13:52.966Z,58
2018-12-26T13:17:23.089Z,57.84
2018-12-26T13:20:53.200Z,57.66
2018-12-26T13:24:23.259Z,57.49
2018-12-26T13:27:53.392Z,57.35
2018-12-26T13:31:23.494Z,57.19
2018-12-26T13:34:53.624Z,57.04
2018-12-26T13:38:23.664Z,56.91
2018-12-26T13:41:53.706Z,56.75
2018-12-26T13:45:23.822Z,56.61
2018-12-26T13:48:53.869Z,56.48
2018-12-26T13:52:23.940Z,56.34
2018-12-26T13:55:54.201Z,56.23
2018-12-26T13:59:24.274Z,56.08
2018-12-26T14:00:19.384Z,56.05
2018-12-26T14:03:49.700Z,55.93
2018-12-26T14:07:19.695Z,55.81
2018-12-26T14:10:49.770Z,55.69
2018-12-26T14:14:19.809Z,55.55
2018-12-26T14:17:49.970Z,55.47
2018-12-26T14:21:20.141Z,55.35
2018-12-26T14:24:50.568Z,55.23
2018-12-26T14:28:20.705Z,55.12
2018-12-26T14:31:50.925Z,55
2018-12-26T14:35:20.966Z,54.91
2018-12-26T14:38:50.997Z,54.8
2018-12-26T14:42:20.958Z,54.72
2018-12-26T14:45:51.250Z,54.64
2018-12-26T14:49:21.282Z,54.55
2018-12-26T14:52:51.387Z,54.48
2018-12-26T14:56:21.413Z,54.4
2018-12-26T14:59:51.525Z,54.34
2018-12-26T15:03:21.756Z,54.28
2018-12-26T15:06:51.877Z,54.24
2018-12-26T15:10:21.869Z,54.16
2018-12-26T15:13:51.940Z,54.11
2018-12-26T15:17:21.891Z,54.05
2018-12-26T15:20:51.902Z,54.01
2018-12-26T15:24:21.903Z,54
2018-12-26T15:27:51.994Z,53.93
2018-12-26T15:31:22.056Z,53.91
2018-12-26T15:34:52.387Z,53.86
2018-12-26T15:38:22.477Z,53.83
2018-12-26T15:41:52.602Z,53.8
2018-12-26T15:45:22.580Z,53.79
2018-12-26T15:48:52.632Z,53.74
2018-12-26T15:52:22.693Z,53.72
2018-12-26T15:55:52.724Z,53.71
2018-12-26T15:59:22.771Z,53.67
2018-12-26T16:00:18.476Z,53.68
2018-12-26T16:03:48.506Z,53.65
2018-12-26T16:07:18.588Z,53.64
2018-12-26T16:10:48.669Z,53.64
2018-12-26T16:14:18.801Z,53.64
2018-12-26T16:17:48.861Z,53.64
2018-12-26T16:21:18.934Z,53.62
2018-12-26T16:24:49.013Z,53.62
2018-12-26T16:28:19.125Z,53.62
2018-12-26T16:31:49.236Z,53.59
2018-12-26T16:35:19.461Z,53.61
2018-12-26T16:38:49.468Z,53.61
2018-12-26T16:42:19.572Z,53.58
2018-12-26T16:45:49.644Z,53.57
2018-12-26T16:49:21.447Z,53.56
2018-12-26T16:52:51.803Z,53.56
2018-12-26T16:56:21.965Z,53.55
2018-12-26T16:59:52.026Z,53.55
2018-12-26T17:03:22.076Z,53.54
2018-12-26T17:06:52.138Z,53.54
2018-12-26T17:10:23.264Z,53.56
2018-12-26T17:13:53.307Z,53.55
2018-12-26T17:17:23.411Z,53.56
2018-12-26T17:20:53.553Z,53.58
2018-12-26T17:24:23.656Z,53.6
2018-12-26T17:27:53.785Z,53.62
2018-12-26T17:31:23.906Z,53.64
2018-12-26T17:34:53.978Z,53.69
2018-12-26T17:38:24.289Z,53.69
2018-12-26T17:41:54.362Z,53.69
2018-12-26T17:45:24.450Z,53.72
2018-12-26T17:48:54.482Z,53.73
2018-12-26T17:52:24.483Z,53.78
2018-12-26T17:56:03.634Z,53.79
2018-12-26T17:59:42.296Z,53.82
2018-12-26T18:00:31.615Z,53.83
2018-12-26T18:04:01.737Z,53.87
2018-12-26T18:07:31.707Z,53.91
2018-12-26T18:11:01.829Z,53.94
2018-12-26T18:14:31.835Z,53.98
2018-12-26T18:18:02.111Z,54.03
2018-12-26T18:21:32.323Z,54.1
2018-12-26T18:25:02.763Z,54.15
2018-12-26T18:28:32.744Z,54.2
2018-12-26T18:32:02.856Z,54.25
2018-12-26T18:35:32.877Z,54.32
2018-12-26T18:39:05.739Z,54.35
2018-12-26T18:42:35.747Z,54.4
2018-12-26T18:46:05.755Z,54.45
2018-12-26T18:49:35.771Z,54.48
2018-12-26T18:53:05.863Z,54.55
2018-12-26T18:56:35.904Z,54.56
2018-12-26T19:00:09.504Z,54.6
2018-12-26T19:03:39.513Z,54.66
2018-12-26T19:07:09.587Z,54.71
2018-12-26T19:10:39.581Z,54.78
2018-12-26T19:14:09.581Z,54.84
2018-12-26T19:17:39.644Z,54.91
2018-12-26T19:21:09.746Z,54.95
2018-12-26T19:24:39.873Z,55.01
2018-12-26T19:28:10.216Z,55.08
2018-12-26T19:31:40.305Z,55.13
2018-12-26T19:35:12.329Z,55.17
2018-12-26T19:38:42.428Z,55.23
2018-12-26T19:42:12.508Z,55.29
2018-12-26T19:45:42.570Z,55.34
2018-12-26T19:49:12.727Z,55.41
2018-12-26T19:52:42.822Z,55.46
2018-12-26T19:56:12.853Z,55.51
2018-12-26T19:59:42.997Z,55.56
2018-12-26T20:00:18.836Z,55.57
2018-12-26T20:03:48.925Z,55.62
2018-12-26T20:07:18.987Z,55.67
2018-12-26T20:10:48.947Z,55.73
2018-12-26T20:14:19.039Z,55.77
2018-12-26T20:17:49.161Z,55.84
2018-12-26T20:21:19.221Z,55.9
2018-12-26T20:24:49.202Z,55.95
2018-12-26T20:28:19.762Z,56
2018-12-26T20:31:56.822Z,56.05
2018-12-26T20:35:27.326Z,56.15
2018-12-26T20:38:57.415Z,56.2
2018-12-26T20:42:27.627Z,56.27
2018-12-26T20:45:57.679Z,56.34
2018-12-26T20:49:27.708Z,56.41
2018-12-26T20:52:57.771Z,56.51
2018-12-26T20:56:27.833Z,56.58
2018-12-26T20:59:57.914Z,56.67
2018-12-26T21:03:27.917Z,56.74
2018-12-26T21:06:57.976Z,56.83
2018-12-26T21:10:28.159Z,56.91
2018-12-26T21:13:58.221Z,56.98
2018-12-26T21:17:28.280Z,57.04
2018-12-26T21:20:58.431Z,57.12
2018-12-26T21:24:28.583Z,57.19
2018-12-26T21:27:58.724Z,57.24
2018-12-26T21:31:28.748Z,57.32
2018-12-26T21:34:58.906Z,57.36
2018-12-26T21:38:28.987Z,57.43
2018-12-26T21:41:59.189Z,57.5
2018-12-26T21:45:29.430Z,57.57
2018-12-26T21:48:59.471Z,57.65
2018-12-26T21:52:29.442Z,57.72
2018-12-26T21:55:59.705Z,57.79
2018-12-26T21:59:30.772Z,57.84
2018-12-26T22:00:19.254Z,57.87
2018-12-26T22:03:49.255Z,57.92
2018-12-26T22:07:19.297Z,57.98
2018-12-26T22:10:49.418Z,58.03
2018-12-26T22:14:19.541Z,58.08
2018-12-26T22:17:49.551Z,58.13
2018-12-26T22:21:19.552Z,58.18
2018-12-26T22:24:49.643Z,58.22
2018-12-26T22:28:19.744Z,58.28
2018-12-26T22:31:49.906Z,58.32
2018-12-26T22:35:19.907Z,58.39
2018-12-26T22:38:49.938Z,58.44
2018-12-26T22:42:20.039Z,58.5
2018-12-26T22:45:50.202Z,58.58
2018-12-26T22:49:20.092Z,58.62
2018-12-26T22:52:50.182Z,58.69
2018-12-26T22:56:20.307Z,58.77
2018-12-26T22:59:50.415Z,58.84
2018-12-26T23:03:20.406Z,58.9
2018-12-26T23:06:50.407Z,58.98
2018-12-26T23:10:20.472Z,59.04
2018-12-26T23:13:50.609Z,59.1
2018-12-26T23:17:20.647Z,59.16
2018-12-26T23:20:50.564Z,59.23
2018-12-26T23:24:20.557Z,59.31
2018-12-26T23:27:50.654Z,59.41
2018-12-26T23:31:20.725Z,59.49
2018-12-26T23:34:50.776Z,59.58
2018-12-26T23:38:20.768Z,59.67
2018-12-26T23:41:50.749Z,59.76
2018-12-26T23:45:20.870Z,59.84
2018-12-26T23:48:51.060Z,59.93
2018-12-26T23:52:21.054Z,59.99
2018-12-26T23:55:51.133Z,60.08
2018-12-26T23:59:21.115Z,60.15
